createdAt,value
2019-04-27T00:00:14.267Z,0.00
2019-04-27T00:01:13.794Z,0.00
2019-04-27T00:02:13.490Z,0.00
2019-04-27T00:03:13.317Z,0.00
2019-04-27T00:04:16.268Z,0.00
2019-04-27T00:05:14.295Z,0.00
2019-04-27T00:06:13.568Z,0.00
2019-04-27T00:07:13.164Z,0.00
2019-04-27T00:08:13.948Z,0.00
2019-04-27T00:09:14.409Z,0.00
2019-04-27T00:10:13.676Z,0.00
2019-04-27T00:11:13.698Z,0.00
2019-04-27T00:12:17.676Z,0.00
2019-04-27T00:13:15.154Z,0.00
2019-04-27T00:14:14.955Z,0.00
2019-04-27T00:15:13.827Z,0.00
2019-04-27T00:16:13.478Z,0.00
2019-04-27T00:17:12.971Z,0.00
2019-04-27T00:18:13.942Z,0.00
2019-04-27T00:19:13.226Z,0.00
2019-04-27T00:20:13.138Z,0.00
2019-04-27T00:21:13.509Z,0.00
2019-04-27T00:22:12.982Z,0.00
2019-04-27T00:23:13.295Z,0.00
2019-04-27T00:24:13.538Z,0.00
2019-04-27T00:25:13.150Z,0.00
2019-04-27T00:26:13.106Z,0.00
2019-04-27T00:27:13.379Z,0.00
2019-04-27T00:28:12.926Z,0.00
2019-04-27T00:29:13.696Z,0.00
2019-04-27T00:30:13.849Z,0.00
2019-04-27T00:31:13.189Z,0.00
2019-04-27T00:32:13.187Z,0.00
2019-04-27T00:33:13.715Z,0.00
2019-04-27T00:34:13.340Z,0.00
2019-04-27T00:35:13.786Z,0.00
2019-04-27T00:36:13.095Z,0.00
2019-04-27T00:37:13.599Z,0.00
2019-04-27T00:38:13.138Z,0.00
2019-04-27T00:39:13.876Z,0.00
2019-04-27T00:40:12.999Z,0.00
2019-04-27T00:41:14.064Z,0.00
2019-04-27T00:42:13.468Z,0.00
2019-04-27T00:43:14.041Z,0.00
2019-04-27T00:44:13.522Z,0.00
2019-04-27T00:45:13.513Z,0.00
2019-04-27T00:46:13.861Z,0.00
2019-04-27T00:47:13.803Z,0.00
2019-04-27T00:48:13.455Z,0.00
2019-04-27T00:49:13.769Z,0.00
2019-04-27T00:50:13.343Z,0.00
2019-04-27T00:51:12.926Z,0.00
2019-04-27T00:52:13.905Z,0.00
2019-04-27T00:53:13.375Z,0.00
2019-04-27T00:54:13.598Z,0.00
2019-04-27T00:55:13.303Z,0.00
2019-04-27T00:56:13.919Z,0.00
2019-04-27T00:57:13.059Z,0.00
2019-04-27T00:58:13.037Z,0.00
2019-04-27T00:59:13.742Z,0.00
2019-04-27T01:00:13.457Z,0.00
2019-04-27T01:01:12.646Z,0.00
2019-04-27T01:02:13.432Z,0.00
2019-04-27T01:03:13.833Z,0.00
2019-04-27T01:04:13.582Z,0.00
2019-04-27T01:05:13.029Z,0.00
2019-04-27T01:06:13.061Z,0.00
2019-04-27T01:07:14.080Z,0.00
2019-04-27T01:08:13.846Z,0.00
2019-04-27T01:09:13.434Z,0.00
2019-04-27T01:10:13.483Z,0.00
2019-04-27T01:11:13.990Z,0.00
2019-04-27T01:12:13.613Z,0.00
2019-04-27T01:13:13.233Z,0.00
2019-04-27T01:14:12.859Z,0.00
2019-04-27T01:15:13.710Z,0.00
2019-04-27T01:16:13.226Z,0.00
2019-04-27T01:17:12.120Z,0.00
2019-04-27T01:18:15.428Z,0.00
2019-04-27T01:19:12.097Z,0.00
2019-04-27T01:20:12.087Z,0.00
2019-04-27T01:21:12.096Z,0.00
2019-04-27T01:22:12.068Z,0.00
2019-04-27T01:23:12.052Z,0.00
2019-04-27T01:24:12.052Z,0.00
2019-04-27T01:25:12.037Z,0.00
2019-04-27T01:26:12.042Z,0.00
2019-04-27T01:27:12.007Z,0.00
2019-04-27T01:28:11.997Z,0.00
2019-04-27T01:29:11.991Z,0.00
2019-04-27T01:30:11.991Z,0.00
2019-04-27T01:31:11.994Z,0.00
2019-04-27T01:32:11.952Z,0.00
2019-04-27T01:33:11.945Z,0.00
2019-04-27T01:34:11.934Z,0.00
2019-04-27T01:35:11.927Z,0.00
2019-04-27T01:36:11.939Z,0.00
2019-04-27T01:37:11.914Z,0.00
2019-04-27T01:38:11.886Z,0.00
2019-04-27T01:39:11.875Z,0.00
2019-04-27T01:40:11.865Z,0.00
2019-04-27T01:41:11.852Z,0.00
2019-04-27T01:42:11.868Z,0.00
2019-04-27T01:43:11.840Z,0.00
2019-04-27T01:44:11.828Z,0.00
2019-04-27T01:45:11.807Z,0.00
2019-04-27T01:46:11.797Z,0.00
2019-04-27T01:47:11.803Z,0.00
2019-04-27T01:48:23.093Z,0.00
2019-04-27T01:49:12.765Z,0.00
2019-04-27T01:50:11.753Z,0.00
2019-04-27T01:51:11.746Z,0.00
2019-04-27T01:52:11.746Z,0.00
2019-04-27T01:53:11.722Z,0.00
2019-04-27T01:54:11.727Z,0.00
2019-04-27T01:55:11.696Z,0.00
2019-04-27T01:56:11.686Z,0.00
2019-04-27T01:57:11.692Z,0.00
2019-04-27T01:58:11.664Z,0.00
2019-04-27T01:59:11.657Z,0.00
2019-04-27T02:00:11.666Z,0.00
2019-04-27T02:01:11.630Z,0.00
2019-04-27T02:02:11.636Z,0.00
2019-04-27T02:03:11.609Z,0.00
2019-04-27T02:04:11.600Z,0.00
2019-04-27T02:05:11.591Z,0.00
2019-04-27T02:06:11.608Z,0.00
2019-04-27T02:07:11.580Z,0.00
2019-04-27T02:08:11.561Z,0.00
2019-04-27T02:09:11.541Z,0.00
2019-04-27T02:10:11.531Z,0.00
2019-04-27T02:11:11.524Z,0.00
2019-04-27T02:12:11.543Z,0.00
2019-04-27T02:13:11.495Z,0.00
2019-04-27T02:14:11.484Z,0.00
2019-04-27T02:15:11.481Z,0.00
2019-04-27T02:16:11.468Z,0.00
2019-04-27T02:17:11.494Z,0.00
2019-04-27T02:18:11.461Z,0.00
2019-04-27T02:19:11.540Z,0.00
2019-04-27T02:20:11.419Z,0.00
2019-04-27T02:21:11.407Z,0.00
2019-04-27T02:22:11.400Z,0.00
2019-04-27T02:23:11.405Z,0.00
2019-04-27T02:24:11.392Z,0.00
2019-04-27T02:25:11.367Z,0.00
2019-04-27T02:26:11.354Z,0.00
2019-04-27T02:27:11.341Z,0.00
2019-04-27T02:28:11.349Z,0.00
2019-04-27T02:29:11.323Z,0.00
2019-04-27T02:30:11.793Z,0.00
2019-04-27T02:31:11.302Z,0.00
2019-04-27T02:32:11.291Z,0.00
2019-04-27T02:33:12.762Z,0.00
2019-04-27T02:34:11.276Z,0.00
2019-04-27T02:35:11.252Z,0.00
2019-04-27T02:36:14.846Z,0.00
2019-04-27T02:37:11.235Z,0.00
2019-04-27T02:38:11.242Z,0.00
2019-04-27T02:39:11.208Z,0.00
2019-04-27T02:40:11.201Z,0.00
2019-04-27T02:41:11.190Z,0.00
2019-04-27T02:42:11.185Z,0.00
2019-04-27T02:43:11.183Z,0.00
2019-04-27T02:44:11.157Z,0.00
2019-04-27T02:45:11.147Z,0.00
2019-04-27T02:46:11.129Z,0.00
2019-04-27T02:47:11.120Z,0.00
2019-04-27T02:48:11.135Z,0.00
2019-04-27T02:49:11.096Z,0.00
2019-04-27T02:50:11.087Z,0.00
2019-04-27T02:51:11.080Z,0.00
2019-04-27T02:52:11.062Z,0.00
2019-04-27T02:53:11.331Z,0.00
2019-04-27T02:54:12.539Z,0.00
2019-04-27T02:55:11.037Z,0.00
2019-04-27T02:56:11.022Z,0.00
2019-04-27T02:57:11.020Z,0.00
2019-04-27T02:58:13.002Z,0.00
2019-04-27T02:59:11.937Z,0.00
2019-04-27T03:00:10.985Z,0.00
2019-04-27T03:01:10.983Z,0.00
2019-04-27T03:02:10.989Z,0.00
2019-04-27T03:03:10.972Z,0.00
2019-04-27T03:04:10.929Z,0.00
2019-04-27T03:05:13.085Z,0.00
2019-04-27T03:06:10.923Z,0.00
2019-04-27T03:07:11.613Z,0.00
2019-04-27T03:08:10.903Z,0.00
2019-04-27T03:09:10.874Z,0.00
2019-04-27T03:10:10.865Z,0.00
2019-04-27T03:11:10.853Z,0.00
2019-04-27T03:12:10.841Z,0.00
2019-04-27T03:13:11.231Z,0.00
2019-04-27T03:14:27.976Z,0.00
2019-04-27T03:15:11.808Z,0.00
2019-04-27T03:16:13.215Z,0.00
2019-04-27T03:17:10.784Z,0.00
2019-04-27T03:18:10.796Z,0.00
2019-04-27T03:19:17.720Z,0.00
2019-04-27T03:20:11.761Z,0.00
2019-04-27T03:21:13.036Z,0.00
2019-04-27T03:22:10.733Z,0.00
2019-04-27T03:23:10.720Z,0.00
2019-04-27T03:24:10.727Z,0.00
2019-04-27T03:25:14.943Z,0.00
2019-04-27T03:26:10.868Z,0.00
2019-04-27T03:27:10.701Z,0.00
2019-04-27T03:28:10.951Z,0.00
2019-04-27T03:29:10.664Z,0.00
2019-04-27T03:30:12.063Z,0.00
2019-04-27T03:31:13.391Z,0.00
2019-04-27T03:32:12.547Z,0.00
2019-04-27T03:33:12.073Z,0.00
2019-04-27T03:34:15.683Z,0.00
2019-04-27T03:35:13.103Z,0.00
2019-04-27T03:36:12.775Z,0.00
2019-04-27T03:37:10.576Z,0.00
2019-04-27T03:38:12.508Z,0.00
2019-04-27T03:39:10.553Z,0.00
2019-04-27T03:40:10.541Z,0.00
2019-04-27T03:41:10.532Z,0.00
2019-04-27T03:42:10.602Z,0.00
2019-04-27T03:43:11.792Z,0.00
2019-04-27T03:44:10.496Z,0.00
2019-04-27T03:45:11.038Z,0.00
2019-04-27T03:46:10.567Z,0.00
2019-04-27T03:47:12.734Z,0.00
2019-04-27T03:48:10.501Z,0.00
2019-04-27T03:49:27.325Z,0.00
2019-04-27T03:50:11.415Z,0.00
2019-04-27T03:51:10.472Z,0.00
2019-04-27T03:52:10.393Z,4.00
2019-04-27T03:53:10.517Z,4.00
2019-04-27T03:54:10.834Z,4.00
2019-04-27T03:55:10.503Z,4.00
2019-04-27T03:56:10.349Z,4.00
2019-04-27T03:57:10.340Z,4.00
2019-04-27T03:58:12.198Z,4.00
2019-04-27T03:59:10.444Z,8.00
2019-04-27T04:00:10.419Z,4.00
2019-04-27T04:01:10.695Z,8.00
2019-04-27T04:02:10.402Z,8.00
2019-04-27T04:03:10.728Z,8.00
2019-04-27T04:04:10.673Z,12.00
2019-04-27T04:05:10.250Z,12.00
2019-04-27T04:06:10.901Z,12.00
2019-04-27T04:07:10.239Z,16.00
2019-04-27T04:08:10.870Z,12.00
2019-04-27T04:09:10.432Z,16.00
2019-04-27T04:10:10.709Z,20.00
2019-04-27T04:11:10.395Z,20.00
2019-04-27T04:12:10.171Z,20.00
2019-04-27T04:13:10.888Z,24.00
2019-04-27T04:14:10.292Z,28.00
2019-04-27T04:15:10.228Z,28.00
2019-04-27T04:16:10.846Z,28.00
2019-04-27T04:17:12.749Z,28.00
2019-04-27T04:18:10.104Z,32.00
2019-04-27T04:19:10.143Z,36.00
2019-04-27T04:20:10.359Z,36.00
2019-04-27T04:21:10.071Z,40.00
2019-04-27T04:22:10.407Z,44.00
2019-04-27T04:23:10.664Z,48.00
2019-04-27T04:24:12.164Z,52.00
2019-04-27T04:25:10.912Z,56.00
2019-04-27T04:26:10.015Z,64.00
2019-04-27T04:27:10.066Z,68.00
2019-04-27T04:28:10.005Z,76.00
2019-04-27T04:29:10.642Z,80.00
2019-04-27T04:30:12.294Z,88.00
2019-04-27T04:31:13.719Z,96.00
2019-04-27T04:32:10.641Z,100.00
2019-04-27T04:33:10.452Z,112.00
2019-04-27T04:34:12.134Z,116.00
2019-04-27T04:35:10.392Z,128.00
2019-04-27T04:36:10.284Z,136.00
2019-04-27T04:37:09.907Z,144.00
2019-04-27T04:38:10.563Z,152.00
2019-04-27T04:39:12.162Z,160.00
2019-04-27T04:40:09.924Z,168.00
2019-04-27T04:41:09.854Z,172.00
2019-04-27T04:42:10.361Z,184.00
2019-04-27T04:43:10.853Z,192.00
2019-04-27T04:44:12.533Z,200.00
2019-04-27T04:45:10.653Z,212.00
2019-04-27T04:46:12.975Z,224.00
2019-04-27T04:47:10.457Z,236.00
2019-04-27T04:48:10.071Z,244.00
2019-04-27T04:49:09.757Z,252.00
2019-04-27T04:50:14.624Z,264.00
2019-04-27T04:51:10.746Z,272.00
2019-04-27T04:52:09.843Z,280.00
2019-04-27T04:53:12.195Z,288.00
2019-04-27T04:54:09.700Z,296.00
2019-04-27T04:55:10.266Z,300.00
2019-04-27T04:56:10.732Z,308.00
2019-04-27T04:57:09.674Z,312.00
2019-04-27T04:58:09.655Z,320.00
2019-04-27T04:59:10.166Z,328.00
2019-04-27T05:00:09.996Z,336.00
2019-04-27T05:01:09.965Z,352.00
2019-04-27T05:02:10.643Z,364.00
2019-04-27T05:03:09.609Z,384.00
2019-04-27T05:04:09.593Z,400.00
2019-04-27T05:05:09.590Z,416.00
2019-04-27T05:06:09.565Z,440.00
2019-04-27T05:07:09.567Z,456.00
2019-04-27T05:08:09.545Z,480.00
2019-04-27T05:09:09.548Z,500.00
2019-04-27T05:10:09.540Z,524.00
2019-04-27T05:11:09.735Z,548.00
2019-04-27T05:12:09.498Z,564.00
2019-04-27T05:13:09.519Z,584.00
2019-04-27T05:14:09.954Z,596.00
2019-04-27T05:15:09.502Z,608.00
2019-04-27T05:16:09.454Z,620.00
2019-04-27T05:17:09.567Z,616.00
2019-04-27T05:18:09.431Z,620.00
2019-04-27T05:19:11.303Z,624.00
2019-04-27T05:20:22.136Z,628.00
2019-04-27T05:21:10.404Z,636.00
2019-04-27T05:22:09.444Z,644.00
2019-04-27T05:23:09.724Z,656.00
2019-04-27T05:24:09.539Z,664.00
2019-04-27T05:25:10.941Z,672.00
2019-04-27T05:26:09.371Z,676.00
2019-04-27T05:27:09.363Z,684.00
2019-04-27T05:28:09.859Z,688.00
2019-04-27T05:29:09.356Z,692.00
2019-04-27T05:30:09.377Z,700.00
2019-04-27T05:31:09.308Z,712.00
2019-04-27T05:32:09.279Z,728.00
2019-04-27T05:33:09.273Z,736.00
2019-04-27T05:34:09.616Z,748.00
2019-04-27T05:35:09.246Z,764.00
2019-04-27T05:36:09.406Z,780.00
2019-04-27T05:37:09.222Z,796.00
2019-04-27T05:38:13.075Z,816.00
2019-04-27T05:39:10.054Z,836.00
2019-04-27T05:40:09.254Z,864.00
2019-04-27T05:41:09.204Z,888.00
2019-04-27T05:42:11.008Z,916.00
2019-04-27T05:43:10.155Z,936.00
2019-04-27T05:44:12.766Z,960.00
2019-04-27T05:45:09.306Z,976.00
2019-04-27T05:46:12.269Z,992.00
2019-04-27T05:47:10.007Z,996.00
2019-04-27T05:48:09.458Z,996.00
2019-04-27T05:49:09.616Z,996.00
2019-04-27T05:50:09.151Z,996.00
2019-04-27T05:51:09.294Z,1000.00
2019-04-27T05:52:14.454Z,1008.00
2019-04-27T05:53:10.050Z,1024.00
2019-04-27T05:54:09.168Z,1040.00
2019-04-27T05:55:10.405Z,1052.00
2019-04-27T05:56:09.465Z,1064.00
2019-04-27T05:57:09.491Z,1068.00
2019-04-27T05:58:09.390Z,1080.00
2019-04-27T05:59:09.290Z,1092.00
2019-04-27T06:00:09.276Z,1108.00
2019-04-27T06:01:10.892Z,1116.00
2019-04-27T06:02:09.462Z,1120.00
2019-04-27T06:03:09.134Z,1132.00
2019-04-27T06:04:09.162Z,1144.00
2019-04-27T06:05:08.954Z,1156.00
2019-04-27T06:06:09.670Z,1180.00
2019-04-27T06:07:09.242Z,1204.00
2019-04-27T06:08:08.873Z,1224.00
2019-04-27T06:09:09.525Z,1248.00
2019-04-27T06:10:09.589Z,1264.00
2019-04-27T06:11:09.427Z,1268.00
2019-04-27T06:12:09.004Z,1268.00
2019-04-27T06:13:10.678Z,1268.00
2019-04-27T06:14:09.718Z,1256.00
2019-04-27T06:15:09.793Z,1260.00
2019-04-27T06:16:09.432Z,1264.00
2019-04-27T06:17:09.466Z,1244.00
2019-04-27T06:18:09.284Z,1228.00
2019-04-27T06:19:09.575Z,1208.00
2019-04-27T06:20:09.142Z,1180.00
2019-04-27T06:21:09.797Z,1176.00
2019-04-27T06:22:09.677Z,1156.00
2019-04-27T06:23:08.995Z,1140.00
2019-04-27T06:24:08.859Z,1120.00
2019-04-27T06:25:11.857Z,1100.00
2019-04-27T06:26:11.541Z,1064.00
2019-04-27T06:27:09.378Z,1044.00
2019-04-27T06:28:09.210Z,1016.00
2019-04-27T06:29:09.537Z,980.00
2019-04-27T06:30:09.323Z,948.00
2019-04-27T06:31:08.873Z,924.00
2019-04-27T06:32:08.992Z,904.00
2019-04-27T06:33:09.371Z,888.00
2019-04-27T06:34:09.850Z,880.00
2019-04-27T06:35:10.758Z,844.00
2019-04-27T06:36:10.047Z,824.00
2019-04-27T06:37:09.538Z,808.00
2019-04-27T06:38:10.180Z,792.00
2019-04-27T06:39:09.796Z,768.00
2019-04-27T06:40:09.767Z,752.00
2019-04-27T06:41:10.031Z,740.00
2019-04-27T06:42:16.648Z,732.00
2019-04-27T06:43:09.511Z,728.00
2019-04-27T06:44:09.380Z,720.00
2019-04-27T06:45:09.961Z,712.00
2019-04-27T06:46:08.836Z,720.00
2019-04-27T06:47:09.090Z,720.00
2019-04-27T06:48:09.606Z,724.00
2019-04-27T06:49:09.056Z,752.00
2019-04-27T06:50:08.651Z,784.00
2019-04-27T06:51:09.682Z,796.00
2019-04-27T06:52:08.729Z,748.00
2019-04-27T06:53:09.116Z,768.00
2019-04-27T06:54:09.291Z,852.00
2019-04-27T06:55:09.364Z,1080.00
2019-04-27T06:56:08.973Z,856.00
2019-04-27T06:57:09.222Z,876.00
2019-04-27T06:58:08.971Z,864.00
2019-04-27T06:59:08.862Z,900.00
2019-04-27T07:00:09.064Z,896.00
2019-04-27T07:01:10.768Z,936.00
2019-04-27T07:02:08.710Z,880.00
2019-04-27T07:03:10.323Z,908.00
2019-04-27T07:04:08.849Z,1040.00
2019-04-27T07:05:08.976Z,820.00
2019-04-27T07:06:08.865Z,776.00
2019-04-27T07:07:09.801Z,820.00
2019-04-27T07:08:09.025Z,828.00
2019-04-27T07:09:09.583Z,828.00
2019-04-27T07:10:08.656Z,920.00
2019-04-27T07:11:08.938Z,1212.00
2019-04-27T07:12:08.999Z,924.00
2019-04-27T07:13:09.610Z,1000.00
2019-04-27T07:14:11.181Z,944.00
2019-04-27T07:15:08.925Z,964.00
2019-04-27T07:16:09.650Z,888.00
2019-04-27T07:17:08.973Z,816.00
2019-04-27T07:18:09.712Z,876.00
2019-04-27T07:19:09.437Z,992.00
2019-04-27T07:20:09.045Z,876.00
2019-04-27T07:21:18.335Z,840.00
2019-04-27T07:22:11.297Z,840.00
2019-04-27T07:23:09.504Z,960.00
2019-04-27T07:24:09.013Z,836.00
2019-04-27T07:25:09.044Z,1020.00
2019-04-27T07:26:09.365Z,840.00
2019-04-27T07:27:09.347Z,848.00
2019-04-27T07:28:09.184Z,928.00
2019-04-27T07:29:09.570Z,928.00
2019-04-27T07:30:11.830Z,912.00
2019-04-27T07:31:09.553Z,844.00
2019-04-27T07:32:09.273Z,852.00
2019-04-27T07:33:08.725Z,908.00
2019-04-27T07:34:09.381Z,960.00
2019-04-27T07:35:09.625Z,1012.00
2019-04-27T07:36:08.990Z,976.00
2019-04-27T07:37:09.335Z,960.00
2019-04-27T07:38:09.713Z,1000.00
2019-04-27T07:39:11.027Z,1120.00
2019-04-27T07:40:09.094Z,1396.00
2019-04-27T07:41:09.571Z,1476.00
2019-04-27T07:42:08.525Z,1404.00
2019-04-27T07:43:09.092Z,1328.00
2019-04-27T07:44:08.391Z,1376.00
2019-04-27T07:45:09.290Z,1368.00
2019-04-27T07:46:08.884Z,1664.00
2019-04-27T07:47:09.609Z,1660.00
2019-04-27T07:48:09.158Z,1968.00
2019-04-27T07:49:09.312Z,1876.00
2019-04-27T07:50:09.585Z,1852.00
2019-04-27T07:51:09.008Z,1724.00
2019-04-27T07:52:08.717Z,1492.00
2019-04-27T07:53:08.633Z,1352.00
2019-04-27T07:54:08.969Z,1388.00
2019-04-27T07:55:08.682Z,1516.00
2019-04-27T07:56:09.326Z,1628.00
2019-04-27T07:57:07.672Z,1640.00
2019-04-27T07:58:08.899Z,1528.00
2019-04-27T07:59:09.082Z,1596.00
2019-04-27T08:00:09.371Z,1700.00
2019-04-27T08:01:09.184Z,1596.00
2019-04-27T08:02:08.599Z,1604.00
2019-04-27T08:03:07.601Z,1536.00
2019-04-27T08:04:09.057Z,1480.00
2019-04-27T08:05:09.207Z,1676.00
2019-04-27T08:06:08.504Z,1624.00
2019-04-27T08:07:09.172Z,1628.00
2019-04-27T08:08:08.947Z,1632.00
2019-04-27T08:09:09.241Z,1708.00
2019-04-27T08:10:09.503Z,1760.00
2019-04-27T08:11:08.854Z,1860.00
2019-04-27T08:12:07.506Z,1792.00
2019-04-27T08:13:07.491Z,1784.00
2019-04-27T08:14:08.691Z,1760.00
2019-04-27T08:15:08.943Z,1692.00
2019-04-27T08:16:08.671Z,1600.00
2019-04-27T08:17:07.461Z,1524.00
2019-04-27T08:18:09.023Z,1468.00
2019-04-27T08:19:07.436Z,1400.00
2019-04-27T08:20:09.111Z,1428.00
2019-04-27T08:21:08.923Z,1556.00
2019-04-27T08:22:07.393Z,1608.00
2019-04-27T08:23:07.390Z,1588.00
2019-04-27T08:24:07.376Z,1512.00
2019-04-27T08:25:09.265Z,1488.00
2019-04-27T08:26:08.754Z,1780.00
2019-04-27T08:27:07.345Z,1688.00
2019-04-27T08:28:08.951Z,1612.00
2019-04-27T08:29:08.591Z,1780.00
2019-04-27T08:30:07.323Z,2276.00
2019-04-27T08:31:08.903Z,2224.00
2019-04-27T08:32:07.290Z,2068.00
2019-04-27T08:33:09.037Z,1628.00
2019-04-27T08:34:08.560Z,1428.00
2019-04-27T08:35:07.281Z,1488.00
2019-04-27T08:36:08.887Z,1400.00
2019-04-27T08:37:09.111Z,1292.00
2019-04-27T08:38:08.947Z,1416.00
2019-04-27T08:39:08.905Z,1772.00
2019-04-27T08:40:07.213Z,2472.00
2019-04-27T08:41:08.879Z,2628.00
2019-04-27T08:42:07.183Z,2788.00
2019-04-27T08:43:09.050Z,2956.00
2019-04-27T08:44:07.155Z,2548.00
2019-04-27T08:45:07.167Z,2396.00
2019-04-27T08:46:08.774Z,2236.00
2019-04-27T08:47:07.134Z,2048.00
2019-04-27T08:48:09.129Z,2024.00
2019-04-27T08:49:08.413Z,2312.00
2019-04-27T08:50:08.976Z,2980.00
2019-04-27T08:51:07.086Z,2896.00
2019-04-27T08:52:09.183Z,2460.00
2019-04-27T08:53:07.068Z,1948.00
2019-04-27T08:54:07.048Z,1592.00
2019-04-27T08:55:07.279Z,1484.00
2019-04-27T08:56:07.025Z,1284.00
2019-04-27T08:57:07.183Z,1356.00
2019-04-27T08:58:07.195Z,1608.00
2019-04-27T08:59:07.226Z,2160.00
2019-04-27T09:00:06.999Z,2292.00
2019-04-27T09:01:10.043Z,2720.00
2019-04-27T09:02:08.639Z,2420.00
2019-04-27T09:03:06.950Z,2404.00
2019-04-27T09:04:06.944Z,2340.00
2019-04-27T09:05:06.944Z,1856.00
2019-04-27T09:06:06.949Z,2100.00
2019-04-27T09:07:08.726Z,2196.00
2019-04-27T09:08:08.678Z,2528.00
2019-04-27T09:09:06.891Z,2964.00
2019-04-27T09:10:08.558Z,2788.00
2019-04-27T09:11:08.777Z,2608.00
2019-04-27T09:12:06.871Z,2600.00
2019-04-27T09:13:08.731Z,2692.00
2019-04-27T09:14:06.833Z,2804.00
2019-04-27T09:15:06.846Z,2488.00
2019-04-27T09:16:06.812Z,2496.00
2019-04-27T09:17:06.808Z,2244.00
2019-04-27T09:18:06.789Z,2132.00
2019-04-27T09:19:08.714Z,2184.00
2019-04-27T09:20:06.786Z,2360.00
2019-04-27T09:21:06.760Z,2760.00
2019-04-27T09:22:14.958Z,2312.00
2019-04-27T09:23:09.695Z,2496.00
2019-04-27T09:24:06.729Z,2396.00
2019-04-27T09:25:06.745Z,2616.00
2019-04-27T09:26:06.703Z,2804.00
2019-04-27T09:27:06.693Z,2928.00
2019-04-27T09:28:06.687Z,3184.00
2019-04-27T09:29:06.692Z,3352.00
2019-04-27T09:30:08.415Z,3208.00
2019-04-27T09:31:06.655Z,3148.00
2019-04-27T09:32:08.751Z,3040.00
2019-04-27T09:33:06.628Z,3008.00
2019-04-27T09:34:08.098Z,3048.00
2019-04-27T09:35:07.743Z,2848.00
2019-04-27T09:36:06.611Z,3028.00
2019-04-27T09:37:06.585Z,3300.00
2019-04-27T09:38:07.063Z,3460.00
2019-04-27T09:39:08.474Z,3388.00
2019-04-27T09:40:08.180Z,3272.00
2019-04-27T09:41:07.203Z,3220.00
2019-04-27T09:42:06.684Z,3328.00
2019-04-27T09:43:07.533Z,3576.00
2019-04-27T09:44:06.510Z,3636.00
2019-04-27T09:45:06.671Z,3832.00
2019-04-27T09:46:06.506Z,4216.00
2019-04-27T09:47:06.504Z,4324.00
2019-04-27T09:48:06.737Z,4260.00
2019-04-27T09:49:07.446Z,4188.00
2019-04-27T09:50:06.452Z,3904.00
2019-04-27T09:51:06.580Z,3464.00
2019-04-27T09:52:06.456Z,3376.00
2019-04-27T09:53:06.529Z,3508.00
2019-04-27T09:54:06.418Z,3540.00
2019-04-27T09:55:06.930Z,3580.00
2019-04-27T09:56:06.396Z,3516.00
2019-04-27T09:57:06.974Z,3224.00
2019-04-27T09:58:06.364Z,3188.00
2019-04-27T09:59:06.470Z,3284.00
2019-04-27T10:00:06.456Z,3616.00
2019-04-27T10:01:06.687Z,3712.00
2019-04-27T10:02:08.421Z,3660.00
2019-04-27T10:03:06.706Z,3552.00
2019-04-27T10:04:06.299Z,3392.00
2019-04-27T10:05:06.280Z,3568.00
2019-04-27T10:06:06.287Z,3520.00
2019-04-27T10:07:06.323Z,3576.00
2019-04-27T10:08:06.397Z,3792.00
2019-04-27T10:09:06.666Z,4340.00
2019-04-27T10:10:06.533Z,3940.00
2019-04-27T10:11:06.230Z,4176.00
2019-04-27T10:12:07.534Z,4036.00
2019-04-27T10:13:07.008Z,3848.00
2019-04-27T10:14:06.184Z,3900.00
2019-04-27T10:15:06.238Z,3972.00
2019-04-27T10:16:06.186Z,4164.00
2019-04-27T10:17:06.148Z,4584.00
2019-04-27T10:18:06.249Z,3976.00
2019-04-27T10:19:06.127Z,3540.00
2019-04-27T10:20:06.149Z,3592.00
2019-04-27T10:21:06.412Z,3620.00
2019-04-27T10:22:06.182Z,3476.00
2019-04-27T10:23:06.361Z,3488.00
2019-04-27T10:24:06.627Z,3644.00
2019-04-27T10:25:06.064Z,3580.00
2019-04-27T10:26:06.069Z,3636.00
2019-04-27T10:27:07.845Z,3616.00
2019-04-27T10:28:06.705Z,3512.00
2019-04-27T10:29:06.230Z,3400.00
2019-04-27T10:30:06.022Z,3228.00
2019-04-27T10:31:07.016Z,3248.00
2019-04-27T10:32:06.403Z,3648.00
2019-04-27T10:33:08.060Z,4056.00
2019-04-27T10:34:06.090Z,4020.00
2019-04-27T10:35:07.563Z,3600.00
2019-04-27T10:36:06.536Z,3516.00
2019-04-27T10:37:06.203Z,3908.00
2019-04-27T10:38:05.917Z,4808.00
2019-04-27T10:39:05.906Z,5392.00
2019-04-27T10:40:06.264Z,5240.00
2019-04-27T10:41:07.646Z,4820.00
2019-04-27T10:42:06.775Z,4616.00
2019-04-27T10:43:06.388Z,4260.00
2019-04-27T10:44:07.532Z,4296.00
2019-04-27T10:45:06.428Z,4512.00
2019-04-27T10:46:06.680Z,4304.00
2019-04-27T10:47:06.061Z,3452.00
2019-04-27T10:48:05.805Z,3240.00
2019-04-27T10:49:05.987Z,3228.00
2019-04-27T10:50:05.953Z,3652.00
2019-04-27T10:51:07.343Z,3660.00
2019-04-27T10:52:06.024Z,3868.00
2019-04-27T10:53:06.978Z,4380.00
2019-04-27T10:54:05.740Z,5168.00
2019-04-27T10:55:06.055Z,4700.00
2019-04-27T10:56:05.717Z,4192.00
2019-04-27T10:57:06.166Z,4208.00
2019-04-27T10:58:05.698Z,4220.00
2019-04-27T10:59:06.578Z,4404.00
2019-04-27T11:00:06.734Z,4500.00
2019-04-27T11:01:05.689Z,4604.00
2019-04-27T11:02:05.669Z,4912.00
2019-04-27T11:03:06.617Z,5032.00
2019-04-27T11:04:05.934Z,4844.00
2019-04-27T11:05:06.797Z,4700.00
2019-04-27T11:06:05.976Z,5764.00
2019-04-27T11:07:07.171Z,5688.00
2019-04-27T11:08:06.586Z,4984.00
2019-04-27T11:09:05.998Z,4064.00
2019-04-27T11:10:07.378Z,3228.00
2019-04-27T11:11:05.558Z,3128.00
2019-04-27T11:12:06.867Z,2716.00
2019-04-27T11:13:06.241Z,3360.00
2019-04-27T11:14:06.846Z,4552.00
2019-04-27T11:15:05.893Z,3232.00
2019-04-27T11:16:05.492Z,2732.00
2019-04-27T11:17:06.282Z,2256.00
2019-04-27T11:18:06.354Z,2476.00
2019-04-27T11:19:06.563Z,3472.00
2019-04-27T11:20:05.446Z,3804.00
2019-04-27T11:21:05.834Z,4372.00
2019-04-27T11:22:07.127Z,4128.00
2019-04-27T11:23:09.338Z,4752.00
2019-04-27T11:24:06.400Z,4412.00
2019-04-27T11:25:06.226Z,3828.00
2019-04-27T11:26:07.409Z,4420.00
2019-04-27T11:27:05.852Z,5272.00
2019-04-27T11:28:05.813Z,6412.00
2019-04-27T11:29:05.403Z,5724.00
2019-04-27T11:30:06.728Z,5428.00
2019-04-27T11:31:05.325Z,5696.00
2019-04-27T11:32:05.805Z,5992.00
2019-04-27T11:33:06.231Z,6172.00
2019-04-27T11:34:06.662Z,5816.00
2019-04-27T11:35:05.754Z,4740.00
2019-04-27T11:36:06.268Z,4556.00
2019-04-27T11:37:05.578Z,5168.00
2019-04-27T11:38:05.661Z,5572.00
2019-04-27T11:39:05.239Z,6092.00
2019-04-27T11:40:05.223Z,5588.00
2019-04-27T11:41:05.230Z,5716.00
2019-04-27T11:42:05.206Z,5488.00
2019-04-27T11:43:05.903Z,5644.00
2019-04-27T11:44:05.195Z,5564.00
2019-04-27T11:45:06.587Z,5420.00
2019-04-27T11:46:06.171Z,5032.00
2019-04-27T11:47:06.034Z,4696.00
2019-04-27T11:48:05.809Z,4492.00
2019-04-27T11:49:06.685Z,4124.00
2019-04-27T11:50:06.353Z,3808.00
2019-04-27T11:51:06.912Z,3948.00
2019-04-27T11:52:05.802Z,3432.00
2019-04-27T11:53:06.188Z,3424.00
2019-04-27T11:54:05.099Z,3412.00
2019-04-27T11:55:05.796Z,3964.00
2019-04-27T11:56:05.051Z,5020.00
2019-04-27T11:57:05.038Z,5772.00
2019-04-27T11:58:06.535Z,5496.00
2019-04-27T11:59:06.943Z,4752.00
2019-04-27T12:00:05.002Z,3280.00
2019-04-27T12:01:04.995Z,2320.00
2019-04-27T12:02:04.990Z,1448.00
2019-04-27T12:03:06.641Z,1172.00
2019-04-27T12:04:05.874Z,1132.00
2019-04-27T12:05:07.650Z,1188.00
2019-04-27T12:06:04.942Z,1784.00
2019-04-27T12:07:06.533Z,1900.00
2019-04-27T12:08:06.262Z,1564.00
2019-04-27T12:09:04.921Z,2156.00
2019-04-27T12:10:05.696Z,3232.00
2019-04-27T12:11:05.934Z,4456.00
2019-04-27T12:12:14.933Z,5180.00
2019-04-27T12:13:07.641Z,4656.00
2019-04-27T12:14:06.207Z,3988.00
2019-04-27T12:15:05.807Z,4248.00
2019-04-27T12:16:04.832Z,5180.00
2019-04-27T12:17:06.349Z,7140.00
2019-04-27T12:18:09.038Z,9456.00
2019-04-27T12:19:06.327Z,8124.00
2019-04-27T12:20:04.784Z,9808.00
2019-04-27T12:21:06.149Z,9924.00
2019-04-27T12:22:06.257Z,9284.00
2019-04-27T12:23:06.471Z,8960.00
2019-04-27T12:24:04.843Z,9236.00
2019-04-27T12:25:06.386Z,9144.00
2019-04-27T12:26:05.803Z,8300.00
2019-04-27T12:27:05.771Z,7396.00
2019-04-27T12:28:04.694Z,7376.00
2019-04-27T12:29:06.239Z,8276.00
2019-04-27T12:30:06.274Z,8868.00
2019-04-27T12:31:04.662Z,9040.00
2019-04-27T12:32:05.588Z,8964.00
2019-04-27T12:33:04.641Z,8660.00